East Sparta, Ohio
Current Conditions -  °F | °C
As of 12:20 AM on Tuesday 21 Oct 2014 (Local Time) from KPHD Reporting Station
Overcast Overcast  
Wind Chill: 51°   Ceiling: 1000
Heat Index: 51°   Visibility: 10mi
Dew Point: 49°   Wind: 3mph
Humidity: 92%   Direction: 190°S
Pressure: 29.88"   Gusts: NA
Location:  40.67°N, 81.35°W
Report Text: KPHD 210420Z AUTO 19003KT 10SM BKN010 OVC018 11/09 A2988 RMK AO2 RAB0355E15 CIG 006V013 P0000 T01060094
Loading
Personal Weather Stations






























Interactive Weather Map
Tropical Storm Tracking
New forecast layout! Learn more

10-Day Weather Forecast

Advertisements
Track Severe Weather on mobile